This is the latest recevied weather packets stored in our database for station/object AD8PA-13. If no packets are shown the sender has not sent any weather packets the latest 10 day(s).
| Time | Temp. | Humidity | Pressure | Rain* | Wind** | Luminosity | Snow |
|---|---|---|---|---|---|---|---|
| 1777849870 | 15° C | 48% | 1009.9 hPa | 0 mm | - | - | - |
| 1777848968 | 15.56° C | 46% | 1009.9 hPa | 0 mm | - | - | - |
| 1777848063 | 15.56° C | 45% | 1010 hPa | 0 mm | - | - | - |
| 1777847160 | 15.56° C | 45% | 1010 hPa | 0 mm | - | - | - |
| 1777846259 | 16.67° C | 41% | 1010.1 hPa | 0 mm | - | - | - |
| 1777845355 | 16.67° C | 43% | 1010 hPa | 0 mm | - | - | - |
| 1777844452 | 16.11° C | 43% | 1010 hPa | 0 mm | - | - | - |
| 1777843550 | 16.11° C | 42% | 1009.9 hPa | 0 mm | - | - | - |
| 1777842645 | 16.11° C | 42% | 1010 hPa | 0 mm | - | - | - |
| 1777841741 | 16.11° C | 42% | 1010.2 hPa | 0 mm | - | - | - |
| 1777840837 | 16.67° C | 41% | 1010.2 hPa | 0 mm | - | - | - |
| 1777839935 | 16.67° C | 40% | 1010.3 hPa | 0 mm | - | - | - |
| 1777839034 | 17.78° C | 38% | 1010.2 hPa | 0 mm | - | - | - |
| 1777838130 | 17.78° C | 38% | 1010.6 hPa | 0 mm | - | - | - |
| 1777837229 | 18.33° C | 38% | 1010.7 hPa | 0 mm | - | - | - |
| 1777836329 | 17.78° C | 38% | 1010.7 hPa | 0 mm | - | - | - |
| 1777835425 | 17.78° C | 38% | 1011.1 hPa | 0 mm | - | - | - |
| 1777834521 | 17.78° C | 36% | 1011.3 hPa | 0 mm | - | - | - |
| 1777833619 | 17.22° C | 38% | 1011.3 hPa | 0 mm | - | - | - |
| 1777832717 | 15.56° C | 40% | 1011.6 hPa | 0 mm | - | - | - |
| 1777831814 | 16.11° C | 39% | 1012.1 hPa | 0 mm | - | - | - |
| 1777830912 | 16.67° C | 40% | 1011.8 hPa | 0 mm | - | - | - |
| 1777830008 | 15.56° C | 43% | 1012.4 hPa | 0 mm | - | - | - |
| 1777829103 | 15.56° C | 42% | 1012.6 hPa | 0 mm | - | - | - |
| 1777828200 | 15.56° C | 42% | 1013 hPa | 0 mm | - | - | - |
* Rain latest hour (hover to see other rain measurements)
** Current wind speed in m/s (hover to see current wind gust speed)